Time;durP1;ratioP1;P1;durP2;ratioP2;P2;SDS_P1;SDS_P2;PMS_P1;PMS_P2;Temp;Humidity;BMP_temperature;BMP_pressure;BME280_temperature;BME280_humidity;BME280_pressure;Samples;Min_cycle;Max_cycle;Signal;HPM_P1;HPM_P2
2022/08/26 00:00:58;;;;;;;38.97;29.13;;;20.80;39.60;;;;;;6230871;23;20468;-84
2022/08/26 00:03:26;;;;;;;47.13;32.50;;;20.90;43.30;;;;;;6220029;23;20508;-83
2022/08/26 00:05:54;;;;;;;48.10;41.40;;;21.00;45.50;;;;;;6231201;23;20474;-84
2022/08/26 00:08:21;;;;;;;51.03;41.77;;;20.90;48.80;;;;;;6222141;23;20410;-83
2022/08/26 00:10:48;;;;;;;54.87;45.10;;;21.10;50.60;;;;;;6221169;23;20412;-85
2022/08/26 00:13:15;;;;;;;56.97;45.43;;;21.20;52.40;;;;;;6219957;23;20411;-85
2022/08/26 00:15:45;;;;;;;58.53;48.20;;;21.20;53.40;;;;;;6220920;23;20434;-84
2022/08/26 00:18:12;;;;;;;57.50;47.90;;;21.20;54.30;;;;;;6220983;23;20434;-85
2022/08/26 00:20:39;;;;;;;60.63;51.27;;;21.20;55.50;;;;;;6220838;23;20744;-84
2022/08/26 00:23:06;;;;;;;65.73;54.30;;;21.30;57.20;;;;;;6221159;23;20419;-85
2022/08/26 00:25:33;;;;;;;74.20;56.40;;;21.20;59.80;;;;;;6220147;23;20448;-83
2022/08/26 00:28:00;;;;;;;72.80;58.10;;;21.20;61.70;;;;;;6219508;23;20412;-83
2022/08/26 00:30:30;;;;;;;75.50;59.60;;;21.10;62.80;;;;;;6218940;23;20793;-83
2022/08/26 00:32:58;;;;;;;71.10;58.00;;;21.10;63.80;;;;;;6219850;23;20419;-85
2022/08/26 00:35:28;;;;;;;72.37;59.57;;;21.00;65.10;;;;;;6230474;23;20437;-83
2022/08/26 00:37:55;;;;;;;82.23;69.00;;;21.00;67.40;;;;;;6230046;23;20785;-84
2022/08/26 00:40:26;;;;;;;85.70;69.93;;;21.00;69.70;;;;;;6229877;23;20461;-84
2022/08/26 00:42:54;;;;;;;77.07;64.90;;;21.00;71.00;;;;;;6219167;23;20409;-85
2022/08/26 00:45:27;;;;;;;76.10;65.43;;;21.10;71.10;;;;;;6230643;23;20971;-85
2022/08/26 00:48:05;;;;;;;88.27;72.80;;;21.10;71.30;;;;;;6229891;23;20901;-84
2022/08/26 00:50:39;;;;;;;94.53;84.50;;;21.10;72.90;;;;;;6229141;23;20388;-85
2022/08/26 00:53:20;;;;;;;85.97;76.00;;;21.10;74.90;;;;;;6220497;23;20398;-85
2022/08/26 00:55:50;;;;;;;88.60;76.53;;;21.10;75.60;;;;;;6229699;23;20421;-83
2022/08/26 00:58:17;;;;;;;93.57;83.17;;;21.10;76.70;;;;;;6219226;23;20520;-84
2022/08/26 01:00:45;;;;;;;87.87;78.23;;;21.00;78.10;;;;;;6229147;23;20422;-84
2022/08/26 01:03:14;;;;;;;99.90;89.47;;;20.90;79.00;;;;;;6218927;23;20393;-84
2022/08/26 01:05:42;;;;;;;101.00;90.20;;;20.90;79.60;;;;;;6219999;23;20968;-84
2022/08/26 01:08:08;;;;;;;94.97;85.03;;;20.90;80.40;;;;;;6218631;23;20412;-85
2022/08/26 01:10:36;;;;;;;99.73;88.83;;;20.90;81.50;;;;;;6219172;23;20413;-84
2022/08/26 01:13:08;;;;;;;100.43;89.57;;;20.90;82.20;;;;;;6218358;23;20469;-85
2022/08/26 01:15:39;;;;;;;101.90;91.90;;;20.80;82.80;;;;;;6228779;23;20457;-85
2022/08/26 01:18:07;;;;;;;102.53;92.20;;;20.80;84.00;;;;;;6219568;23;20513;-84
2022/08/26 01:20:41;;;;;;;98.57;87.97;;;20.80;84.60;;;;;;6217910;23;20419;-83
2022/08/26 01:23:11;;;;;;;102.57;92.20;;;20.70;86.10;;;;;;6218360;23;20736;-84
2022/08/26 01:25:41;;;;;;;112.10;101.20;;;20.70;86.70;;;;;;6219179;23;20444;-84
2022/08/26 01:28:20;;;;;;;122.93;111.10;;;20.60;86.60;;;;;;6218922;23;20727;-84
2022/08/26 01:30:49;;;;;;;136.07;124.40;;;20.60;88.40;;;;;;6219271;23;20421;-84
2022/08/26 01:33:21;;;;;;;153.60;141.60;;;20.60;89.60;;;;;;6219925;23;20411;-85
2022/08/26 01:35:49;;;;;;;119.50;108.60;;;20.60;90.00;;;;;;6220805;23;20458;-86
2022/08/26 01:38:18;;;;;;;128.60;117.60;;;20.50;90.30;;;;;;6219960;23;20753;-84
2022/08/26 01:40:45;;;;;;;140.47;129.43;;;20.50;90.70;;;;;;6217675;23;20387;-84
2022/08/26 01:43:16;;;;;;;126.83;115.93;;;20.50;90.90;;;;;;6218419;23;20965;-84
2022/08/26 01:45:45;;;;;;;165.67;154.10;;;20.40;91.50;;;;;;6218797;23;20440;-84
2022/08/26 01:48:15;;;;;;;152.37;141.07;;;20.40;91.90;;;;;;6218266;23;20931;-84
2022/08/26 01:50:44;;;;;;;175.30;163.20;;;20.40;92.30;;;;;;6217737;23;20403;-84
2022/08/26 01:53:14;;;;;;;191.63;179.50;;;20.30;92.60;;;;;;6218786;23;20416;-84
2022/08/26 01:55:46;;;;;;;193.93;181.90;;;20.20;93.60;;;;;;6218607;23;20432;-85
2022/08/26 01:58:19;;;;;;;210.33;197.50;;;20.20;94.10;;;;;;6218940;23;20448;-86
2022/08/26 02:00:46;;;;;;;229.17;216.37;;;20.10;95.10;;;;;;6220192;23;20711;-85
2022/08/26 02:03:17;;;;;;;244.03;230.23;;;20.00;95.10;;;;;;6218521;23;20414;-84
2022/08/26 02:05:44;;;;;;;280.37;264.47;;;20.00;96.20;;;;;;6218859;23;20427;-84
2022/08/26 02:08:11;;;;;;;332.57;315.90;;;20.00;97.20;;;;;;6220424;23;20382;-84
2022/08/26 02:10:38;;;;;;;288.30;273.10;;;20.00;97.70;;;;;;6221442;23;20433;-84
2022/08/26 02:13:09;;;;;;;318.47;302.47;;;19.90;98.30;;;;;;6220344;23;20418;-84
2022/08/26 02:15:37;;;;;;;336.80;319.93;;;19.90;98.40;;;;;;6221210;23;20429;-84
2022/08/26 02:18:05;;;;;;;395.80;375.73;;;19.80;99.80;;;;;;6221015;23;20443;-84
2022/08/26 02:20:32;;;;;;;398.03;378.23;;;19.80;99.90;;;;;;6219656;23;20412;-85
2022/08/26 02:23:00;;;;;;;391.70;373.33;;;19.70;99.90;;;;;;6219788;23;20413;-84
2022/08/26 02:25:30;;;;;;;449.67;427.57;;;19.70;99.90;;;;;;6218958;23;20515;-86
2022/08/26 02:27:57;;;;;;;519.27;491.77;;;19.60;99.90;;;;;;6228920;23;20419;-84
2022/08/26 02:30:27;;;;;;;525.50;498.53;;;19.60;99.90;;;;;;6219730;23;20417;-84
2022/08/26 02:32:54;;;;;;;537.73;508.93;;;19.50;99.90;;;;;;6221134;23;20396;-84
2022/08/26 02:35:23;;;;;;;533.73;505.43;;;19.60;99.90;;;;;;6221261;23;20763;-86
2022/08/26 02:37:52;;;;;;;548.70;520.93;;;19.50;99.90;;;;;;6220082;23;20440;-83
2022/08/26 02:40:22;;;;;;;565.17;535.43;;;19.50;99.90;;;;;;6220379;23;20411;-84
2022/08/26 02:42:49;;;;;;;566.60;536.53;;;19.60;99.90;;;;;;6220358;23;20745;-84
2022/08/26 02:45:16;;;;;;;507.80;481.57;;;19.60;99.90;;;;;;6218788;23;20789;-84
2022/08/26 02:47:45;;;;;;;423.07;401.97;;;19.80;99.90;;;;;;6218867;23;20392;-85
2022/08/26 02:50:12;;;;;;;414.07;392.67;;;19.90;99.90;;;;;;6218794;23;20419;-84
2022/08/26 02:52:39;;;;;;;363.90;345.67;;;20.00;99.90;;;;;;6220733;23;20417;-84
2022/08/26 02:55:07;;;;;;;355.67;336.30;;;20.10;99.90;;;;;;6220689;23;20773;-86
2022/08/26 02:57:33;;;;;;;333.57;316.43;;;20.10;99.90;;;;;;6230450;23;20817;-84
2022/08/26 03:00:01;;;;;;;303.40;288.00;;;20.10;99.90;;;;;;6220756;23;20743;-85
2022/08/26 03:02:28;;;;;;;293.23;278.40;;;20.20;99.90;;;;;;6219158;23;20415;-84
2022/08/26 03:04:56;;;;;;;255.13;242.13;;;20.30;99.90;;;;;;6220731;23;20438;-84
2022/08/26 03:07:23;;;;;;;266.90;253.63;;;20.20;99.90;;;;;;6219917;23;20410;-84
2022/08/26 03:09:50;;;;;;;256.37;243.50;;;20.30;99.90;;;;;;6219943;23;20412;-84
2022/08/26 03:12:17;;;;;;;246.60;234.40;;;20.30;99.90;;;;;;6220121;23;20756;-85
2022/08/26 03:14:44;;;;;;;249.00;236.23;;;20.40;99.90;;;;;;6219695;23;20432;-85
2022/08/26 03:17:10;;;;;;;237.47;225.37;;;20.50;99.90;;;;;;6219209;23;20417;-84
2022/08/26 03:19:37;;;;;;;228.10;216.37;;;20.50;99.90;;;;;;6218092;23;20759;-86
2022/08/26 03:22:06;;;;;;;230.97;219.20;;;20.40;99.90;;;;;;6219077;23;20415;-84
2022/08/26 03:24:32;;;;;;;241.10;229.23;;;20.40;99.90;;;;;;6219118;23;20406;-84
2022/08/26 03:27:00;;;;;;;235.33;223.80;;;20.40;99.90;;;;;;6220016;23;20672;-84
2022/08/26 03:32:12;;;;;;;236.23;224.90;;;20.30;99.90;;;;;;6219062;23;20474;-84
2022/08/26 03:34:39;;;;;;;245.03;233.23;;;20.30;99.90;;;;;;6219698;23;20934;-84
2022/08/26 03:37:07;;;;;;;257.93;246.07;;;20.40;99.90;;;;;;6219726;23;20412;-85
2022/08/26 03:39:34;;;;;;;243.77;232.87;;;20.30;99.90;;;;;;6220318;23;20771;-86
2022/08/26 03:42:01;;;;;;;250.23;238.33;;;20.40;99.90;;;;;;6228992;23;20728;-84
2022/08/26 03:44:28;;;;;;;257.13;244.90;;;20.40;99.90;;;;;;6217827;23;20437;-84
2022/08/26 03:46:55;;;;;;;228.20;217.20;;;20.40;99.90;;;;;;6218672;23;20408;-85
2022/08/26 03:49:22;;;;;;;228.43;216.83;;;20.40;99.90;;;;;;6219538;23;20417;-85
2022/08/26 03:51:49;;;;;;;227.10;216.20;;;20.40;99.90;;;;;;6219089;23;20474;-86
2022/08/26 03:54:17;;;;;;;228.23;217.33;;;20.40;99.90;;;;;;6219417;23;20444;-84
2022/08/26 03:56:44;;;;;;;230.87;220.17;;;20.40;99.90;;;;;;6219412;23;20412;-85
2022/08/26 03:59:11;;;;;;;235.70;225.20;;;20.40;99.90;;;;;;6219827;23;20445;-84
2022/08/26 04:01:37;;;;;;;219.33;208.43;;;20.30;99.90;;;;;;6220077;23;20501;-85
2022/08/26 04:04:04;;;;;;;208.87;198.67;;;20.50;99.90;;;;;;6218238;23;20441;-85
2022/08/26 04:06:33;;;;;;;208.40;197.70;;;20.30;99.90;;;;;;6218401;23;20409;-84
2022/08/26 04:09:04;;;;;;;208.53;198.77;;;20.40;99.80;;;;;;6228686;23;20815;-85
2022/08/26 04:11:34;;;;;;;208.30;197.90;;;20.30;99.60;;;;;;6220193;23;20398;-84
2022/08/26 04:14:03;;;;;;;178.50;169.80;;;20.40;99.60;;;;;;6218900;23;20460;-85
2022/08/26 04:16:31;;;;;;;183.83;175.20;;;20.40;99.40;;;;;;6217858;23;20417;-85
2022/08/26 04:18:58;;;;;;;177.20;167.67;;;20.50;99.40;;;;;;6218652;23;20441;-84
2022/08/26 04:21:26;;;;;;;165.40;156.97;;;20.40;99.10;;;;;;6218303;23;20439;-84
2022/08/26 04:23:53;;;;;;;153.37;145.37;;;20.30;98.90;;;;;;6219079;23;20523;-85
2022/08/26 04:26:21;;;;;;;155.87;147.43;;;20.40;98.80;;;;;;6219252;23;20415;-85
2022/08/26 04:28:51;;;;;;;140.83;133.33;;;20.50;98.70;;;;;;6218355;23;20409;-84
2022/08/26 04:31:20;;;;;;;141.57;133.90;;;20.40;98.60;;;;;;6228508;23;20752;-85
2022/08/26 04:33:49;;;;;;;136.27;128.47;;;20.50;98.70;;;;;;6229681;23;20465;-84
2022/08/26 04:36:16;;;;;;;118.07;112.17;;;20.40;98.20;;;;;;6216214;23;20413;-84
2022/08/26 04:38:44;;;;;;;118.43;112.10;;;20.30;98.10;;;;;;6221049;23;20432;-85
2022/08/26 04:41:12;;;;;;;124.07;117.30;;;20.60;98.20;;;;;;6220673;23;20412;-85
2022/08/26 04:43:40;;;;;;;123.37;116.47;;;20.30;97.90;;;;;;6220839;23;20443;-86
2022/08/26 04:46:10;;;;;;;127.30;120.80;;;20.50;97.90;;;;;;6221625;23;20446;-86
2022/08/26 04:48:37;;;;;;;118.80;112.10;;;20.40;97.70;;;;;;6222696;23;20435;-85
2022/08/26 04:51:04;;;;;;;114.70;107.80;;;20.40;97.70;;;;;;6223322;23;20409;-87
2022/08/26 04:53:31;;;;;;;99.23;93.63;;;20.50;97.60;;;;;;6224019;23;20421;-86
2022/08/26 04:55:58;;;;;;;103.27;98.27;;;20.30;97.30;;;;;;6220638;23;20903;-86
2022/08/26 04:58:25;;;;;;;88.27;83.07;;;20.50;97.20;;;;;;6223277;23;20413;-84
2022/08/26 05:00:55;;;;;;;87.40;82.50;;;20.50;96.90;;;;;;6222886;23;20463;-86
2022/08/26 05:03:24;;;;;;;87.57;81.97;;;20.50;96.60;;;;;;6222578;23;20414;-86
2022/08/26 05:05:51;;;;;;;76.23;71.70;;;20.60;96.60;;;;;;6224343;23;20417;-87
2022/08/26 05:08:21;;;;;;;71.83;67.37;;;20.50;96.20;;;;;;6222463;23;20499;-86
2022/08/26 05:10:50;;;;;;;71.70;67.50;;;20.50;95.90;;;;;;6223625;23;20420;-83
2022/08/26 05:13:19;;;;;;;67.47;63.23;;;20.50;95.70;;;;;;6223909;23;20769;-84
2022/08/26 05:15:47;;;;;;;66.17;62.17;;;20.50;95.50;;;;;;6222870;23;20500;-87
2022/08/26 05:18:16;;;;;;;60.07;55.53;;;20.50;95.30;;;;;;6222317;23;20413;-83
2022/08/26 05:20:46;;;;;;;53.33;49.73;;;20.60;95.30;;;;;;6219617;23;20413;-79
2022/08/26 05:23:13;;;;;;;47.53;44.47;;;20.60;95.30;;;;;;6216992;23;20415;-79
2022/08/26 05:25:42;;;;;;;44.83;41.63;;;20.70;94.80;;;;;;6216328;23;20432;-82
2022/08/26 05:28:16;;;;;;;43.93;41.10;;;20.70;94.40;;;;;;6216365;23;20420;-83
2022/08/26 05:30:55;;;;;;;34.00;31.40;;;20.70;94.30;;;;;;6229572;23;20423;-83
2022/08/26 05:33:23;;;;;;;34.63;32.07;;;20.80;94.00;;;;;;6227663;23;20421;-80
2022/08/26 05:35:51;;;;;;;36.80;34.00;;;20.60;93.70;;;;;;6216666;23;21008;-81
2022/08/26 05:38:21;;;;;;;33.20;30.30;;;20.80;93.70;;;;;;6215787;23;20418;-82
2022/08/26 05:40:49;;;;;;;30.83;27.53;;;20.80;93.60;;;;;;6216729;23;20800;-80
2022/08/26 05:43:17;;;;;;;27.17;25.07;;;20.80;93.00;;;;;;6215576;23;20417;-82
2022/08/26 05:45:46;;;;;;;25.40;23.00;;;20.80;92.60;;;;;;6226018;23;20422;-81
2022/08/26 05:48:13;;;;;;;23.63;21.30;;;21.00;92.40;;;;;;6218059;23;20413;-80
2022/08/26 05:50:47;;;;;;;20.00;18.17;;;21.00;92.10;;;;;;6217057;23;20409;-81
2022/08/26 05:53:21;;;;;;;22.20;19.90;;;21.00;91.70;;;;;;6227425;23;20422;-81
2022/08/26 05:55:50;;;;;;;18.90;16.33;;;21.20;91.90;;;;;;6215667;23;20440;-81
2022/08/26 05:58:18;;;;;;;20.27;18.03;;;21.10;91.60;;;;;;6225940;23;20425;-80
2022/08/26 06:00:47;;;;;;;18.37;16.50;;;21.10;91.40;;;;;;6225626;23;21017;-80
2022/08/26 06:03:14;;;;;;;22.10;14.13;;;21.10;90.70;;;;;;6216389;23;20931;-80
2022/08/26 06:05:56;;;;;;;18.40;14.97;;;21.20;90.60;;;;;;6221476;23;20463;-85
2022/08/26 06:18:42;;;;;;;16.43;14.20;;;21.20;89.00;;;;;;6103202;23;20416;-87
2022/08/26 06:21:33;;;;;;;17.53;12.60;;;21.30;88.90;;;;;;6206941;23;20421;-87
2022/08/26 06:26:56;;;;;;;13.40;10.77;;;21.30;87.30;;;;;;6237446;23;20397;-84
2022/08/26 06:29:30;;;;;;;15.03;10.70;;;21.40;87.30;;;;;;6238831;23;20410;-84
2022/08/26 06:32:01;;;;;;;16.50;12.03;;;21.40;87.30;;;;;;6223340;23;20408;-84
2022/08/26 06:34:28;;;;;;;14.83;12.23;;;21.30;87.30;;;;;;6220579;23;20441;-81
2022/08/26 06:36:57;;;;;;;16.70;11.10;;;21.30;87.30;;;;;;6221935;23;20417;-81
2022/08/26 06:39:24;;;;;;;14.50;11.30;;;21.30;87.30;;;;;;6222049;23;20438;-81
2022/08/26 06:41:50;;;;;;;19.10;11.33;;;21.40;87.30;;;;;;6224999;23;20419;-82
2022/08/26 06:44:18;;;;;;;19.70;11.50;;;21.40;87.10;;;;;;6220570;23;20429;-82
2022/08/26 06:46:44;;;;;;;16.47;10.67;;;21.50;85.70;;;;;;6224795;23;20420;-82
2022/08/26 06:49:13;;;;;;;17.40;10.97;;;21.50;85.60;;;;;;6221955;23;20415;-81
2022/08/26 06:51:41;;;;;;;16.87;10.47;;;21.50;85.00;;;;;;6220787;23;20418;-82
2022/08/26 06:54:08;;;;;;;16.50;10.97;;;21.40;84.40;;;;;;6220512;23;21026;-82
2022/08/26 06:56:37;;;;;;;17.97;10.50;;;21.40;84.70;;;;;;6221608;23;20409;-82
2022/08/26 06:59:05;;;;;;;16.43;10.20;;;21.50;84.80;;;;;;6220387;23;20489;-81
2022/08/26 07:01:37;;;;;;;19.07;11.20;;;21.40;84.10;;;;;;6220857;23;20413;-82
2022/08/26 07:04:08;;;;;;;19.53;11.07;;;21.40;84.70;;;;;;6220526;23;20443;-81
2022/08/26 07:06:41;;;;;;;15.27;8.87;;;21.50;84.60;;;;;;6223378;23;20369;-84
2022/08/26 07:09:10;;;;;;;13.90;11.03;;;21.50;84.10;;;;;;6233557;23;20411;-84
2022/08/26 07:11:38;;;;;;;22.00;10.97;;;21.50;83.30;;;;;;6233311;23;20423;-84
2022/08/26 07:14:06;;;;;;;12.90;10.43;;;21.50;82.90;;;;;;6231634;23;20438;-83
2022/08/26 07:17:04;;;;;;;14.10;10.50;;;21.50;83.80;;;;;;6230979;23;20403;-84
2022/08/26 07:19:31;;;;;;;20.97;13.90;;;21.40;82.10;;;;;;6209617;23;20442;-84
2022/08/26 07:22:01;;;;;;;20.20;13.80;;;21.40;81.60;;;;;;6219288;23;20415;-84
2022/08/26 07:24:28;;;;;;;16.10;10.37;;;21.40;82.20;;;;;;6218366;23;20447;-83
2022/08/26 07:27:01;;;;;;;15.37;12.70;;;21.40;81.70;;;;;;6218813;23;20421;-84
2022/08/26 07:29:28;;;;;;;18.03;13.10;;;21.40;81.20;;;;;;6230073;23;20447;-84
2022/08/26 07:31:55;;;;;;;16.07;12.60;;;21.40;81.60;;;;;;6230586;23;20521;-84
2022/08/26 07:34:22;;;;;;;16.47;13.50;;;21.40;82.20;;;;;;6219778;23;20441;-84
2022/08/26 07:36:50;;;;;;;19.70;12.47;;;21.40;82.30;;;;;;6229999;23;20405;-83
2022/08/26 07:39:18;;;;;;;22.97;11.40;;;21.50;82.00;;;;;;6229793;23;20438;-84
2022/08/26 07:41:46;;;;;;;14.47;10.20;;;21.50;82.90;;;;;;6219069;23;20500;-84
2022/08/26 07:44:13;;;;;;;17.13;12.00;;;21.30;83.20;;;;;;6219499;23;20526;-84
2022/08/26 07:46:41;;;;;;;19.03;11.47;;;21.30;84.70;;;;;;6219646;23;20506;-84
2022/08/26 07:49:08;;;;;;;18.30;12.80;;;21.30;85.60;;;;;;6219460;23;20445;-84
2022/08/26 07:51:35;;;;;;;17.87;12.97;;;21.10;85.60;;;;;;6230603;23;20423;-84
2022/08/26 08:36:07;;;;;;;15.50;9.37;;;21.40;79.40;;;;;;6003121;23;20437;-86
2022/08/26 08:58:47;;;;;;;12.70;7.30;;;22.00;73.60;;;;;;5900599;24;20543;-87
2022/08/26 09:34:17;;;;;;;11.52;7.32;;;22.10;72.00;;;;;;6229280;22;20518;-84
2022/08/26 09:36:47;;;;;;;13.03;6.00;;;22.10;70.60;;;;;;6274997;23;20171;-86
2022/08/26 09:39:33;;;;;;;14.60;6.30;;;22.20;68.70;;;;;;6276532;23;20834;-84
2022/08/26 09:42:10;;;;;;;12.23;7.00;;;22.30;67.90;;;;;;6247484;23;20412;-84
2022/08/26 09:44:55;;;;;;;19.50;6.63;;;22.30;68.00;;;;;;6238647;23;20788;-84
2022/08/26 09:47:28;;;;;;;12.57;6.30;;;22.30;67.50;;;;;;6224182;23;20704;-84
2022/08/26 09:50:05;;;;;;;8.20;4.43;;;22.50;66.40;;;;;;6225826;23;20416;-85
2022/08/26 09:52:37;;;;;;;11.50;5.23;;;22.30;65.40;;;;;;6215022;23;20404;-84
2022/08/26 09:55:11;;;;;;;11.07;6.10;;;22.30;65.40;;;;;;6216026;23;20434;-84
2022/08/26 10:00:30;;;;;;;7.20;4.40;;;22.30;65.20;;;;;;6206271;23;20444;-84
2022/08/26 10:02:58;;;;;;;10.33;5.90;;;22.50;64.10;;;;;;6224056;23;20403;-83
2022/08/26 10:05:43;;;;;;;7.50;3.90;;;22.80;63.40;;;;;;6232914;23;20489;-84
2022/08/26 10:09:00;;;;;;;10.17;5.07;;;23.00;62.30;;;;;;6234301;23;20394;-83
2022/08/26 10:11:37;;;;;;;8.90;4.80;;;23.00;61.20;;;;;;6184369;23;20405;-83
2022/08/26 10:14:13;;;;;;;16.60;4.90;;;23.00;60.00;;;;;;6225286;23;20430;-82
2022/08/26 10:16:53;;;;;;;8.37;4.50;;;23.00;60.70;;;;;;6235262;23;20405;-85
2022/08/26 10:19:26;;;;;;;6.73;3.23;;;23.00;60.00;;;;;;6225616;23;20402;-84
2022/08/26 11:52:02;;;;;;;7.20;2.90;;;23.10;59.90;;;;;;5976238;23;20504;-86
2022/08/26 13:08:30;;;;;;;10.53;2.83;;;22.90;59.70;;;;;;6095960;23;20421;-85
2022/08/26 13:28:54;;;;;;;;;;;;;;;;;;;;;
2022/08/26 13:42:05;;;;;;;8.93;3.67;;;22.30;63.90;;;;;;6023458;23;20460;-85
2022/08/26 13:44:41;;;;;;;12.53;3.20;;;22.40;64.00;;;;;;6218940;23;20413;-86
2022/08/26 13:47:19;;;;;;;11.30;4.63;;;22.60;63.00;;;;;;6226375;23;20369;-86
2022/08/26 13:52:56;;;;;;;;;;;;;;;;;;;;;
2022/08/26 14:02:32;;;;;;;10.10;3.17;;;22.60;62.40;;;;;;6037715;23;20437;-85
2022/08/26 14:05:16;;;;;;;10.33;3.00;;;22.70;61.80;;;;;;6237119;23;20444;-86
2022/08/26 14:08:45;;;;;;;8.97;2.67;;;22.60;61.70;;;;;;6238778;23;20437;-86
2022/08/26 14:18:38;;;;;;;7.53;3.50;;;23.20;59.40;;;;;;6066566;23;20475;-87
2022/08/26 14:25:47;;;;;;;5.80;2.53;;;23.80;56.80;;;;;;6017353;23;20505;-86
2022/08/26 14:42:20;;;;;;;9.60;3.00;;;24.80;50.30;;;;;;5872854;24;21005;-86
2022/08/26 15:12:25;;;;;;;7.77;3.23;;;24.40;49.40;;;;;;5913056;24;20392;-81
2022/08/26 15:14:52;;;;;;;7.83;3.33;;;24.60;48.70;;;;;;5968355;23;20412;-82
2022/08/26 15:17:22;;;;;;;13.37;3.27;;;24.50;48.70;;;;;;6146549;23;20399;-81
2022/08/26 15:19:49;;;;;;;7.57;2.67;;;24.20;49.10;;;;;;6157360;23;20421;-82
2022/08/26 15:22:15;;;;;;;8.20;2.90;;;24.10;50.90;;;;;;6156291;23;20478;-82
2022/08/26 15:24:42;;;;;;;9.13;2.80;;;23.80;50.00;;;;;;6188078;23;20428;-82
2022/08/26 15:27:09;;;;;;;9.80;3.53;;;23.60;51.70;;;;;;6198177;23;20426;-82
2022/08/26 15:29:38;;;;;;;13.13;2.80;;;23.60;53.60;;;;;;6199564;23;20417;-81
2022/08/26 15:32:05;;;;;;;7.27;3.40;;;23.50;52.90;;;;;;6190119;23;20414;-81
2022/08/26 15:34:32;;;;;;;8.43;3.60;;;23.20;54.10;;;;;;6188430;23;20435;-81
2022/08/26 15:36:59;;;;;;;7.63;2.80;;;23.20;54.20;;;;;;6190553;23;20415;-81
2022/08/26 15:39:26;;;;;;;5.77;2.57;;;22.90;54.70;;;;;;6188850;23;20643;-81
2022/08/26 15:41:54;;;;;;;6.20;2.20;;;22.80;55.60;;;;;;6189888;23;20467;-80
2022/08/26 15:44:22;;;;;;;8.07;2.33;;;22.60;55.70;;;;;;6189852;23;20994;-80
2022/08/26 15:46:50;;;;;;;7.43;2.80;;;22.70;55.70;;;;;;6188923;23;20418;-81
2022/08/26 15:49:17;;;;;;;9.70;2.37;;;22.70;55.70;;;;;;6203055;22;20436;-80
2022/08/26 15:51:45;;;;;;;10.30;3.27;;;22.70;55.80;;;;;;6249172;23;20409;-84
2022/08/26 15:54:13;;;;;;;8.30;3.10;;;22.70;56.80;;;;;;6250057;23;20418;-85
2022/08/26 15:56:39;;;;;;;11.60;2.60;;;22.60;57.20;;;;;;6248881;23;20722;-84
2022/08/26 15:59:07;;;;;;;8.27;2.23;;;22.50;56.70;;;;;;6244167;23;20430;-85
2022/08/26 16:01:34;;;;;;;4.97;2.40;;;22.50;57.70;;;;;;6218320;23;20439;-84
2022/08/26 16:04:02;;;;;;;11.57;2.80;;;22.40;56.40;;;;;;6217513;23;20417;-85
2022/08/26 16:06:33;;;;;;;6.97;2.10;;;22.50;57.00;;;;;;6216585;23;20416;-84
2022/08/26 16:08:59;;;;;;;10.73;2.40;;;22.40;57.20;;;;;;6219231;23;20403;-82
2022/08/26 16:11:27;;;;;;;10.47;2.60;;;22.40;56.50;;;;;;6216347;23;20415;-83
2022/08/26 16:13:54;;;;;;;5.97;2.13;;;22.20;56.40;;;;;;6215209;23;20410;-85
2022/08/26 16:16:21;;;;;;;8.20;2.50;;;22.40;57.00;;;;;;6215077;23;20904;-85
2022/08/26 16:18:48;;;;;;;4.40;1.60;;;22.40;57.00;;;;;;6215567;23;20444;-86
2022/08/26 16:21:18;;;;;;;5.50;1.60;;;22.40;56.50;;;;;;6215987;23;20445;-84
2022/08/26 16:23:45;;;;;;;7.63;1.87;;;22.30;57.30;;;;;;6215425;23;20412;-85
2022/08/26 16:26:14;;;;;;;11.80;3.23;;;22.30;57.10;;;;;;6215906;23;20417;-85
2022/08/26 16:28:42;;;;;;;13.27;2.27;;;22.30;57.60;;;;;;6214788;23;20416;-86
2022/08/26 16:31:09;;;;;;;6.77;2.27;;;22.30;57.60;;;;;;6218455;23;20422;-84
2022/08/26 16:33:36;;;;;;;14.00;2.67;;;22.00;60.80;;;;;;6219683;23;20467;-84
2022/08/26 16:36:03;;;;;;;9.50;2.63;;;21.90;63.30;;;;;;6218742;23;20463;-86
2022/08/26 16:38:31;;;;;;;11.00;2.97;;;21.60;63.30;;;;;;6220152;23;20421;-85
2022/08/26 16:40:59;;;;;;;7.00;2.40;;;21.50;64.30;;;;;;6218482;23;20434;-84
2022/08/26 16:43:26;;;;;;;7.30;2.60;;;21.50;65.00;;;;;;6218764;23;20414;-85
2022/08/26 16:45:52;;;;;;;9.70;2.20;;;21.40;65.00;;;;;;6219568;23;20389;-84
2022/08/26 16:48:19;;;;;;;6.53;2.80;;;21.40;65.20;;;;;;6220152;23;20393;-87
2022/08/26 16:50:54;;;;;;;6.83;2.33;;;21.40;65.60;;;;;;6229713;23;20496;-86
2022/08/26 16:53:20;;;;;;;8.03;2.27;;;21.30;65.90;;;;;;6221592;23;20391;-86
2022/08/26 16:55:50;;;;;;;9.83;1.97;;;21.30;64.70;;;;;;6220148;23;20532;-87
2022/08/26 17:05:54;;;;;;;7.33;1.93;;;21.40;64.40;;;;;;6130653;23;20482;-87
2022/08/26 17:08:21;;;;;;;6.90;1.60;;;21.30;63.00;;;;;;6160253;23;20427;-86
2022/08/26 17:10:50;;;;;;;9.73;2.43;;;21.30;63.10;;;;;;6221427;23;20462;-85
2022/08/26 17:13:17;;;;;;;6.60;1.67;;;21.40;63.20;;;;;;6230717;23;20400;-85
2022/08/26 17:15:52;;;;;;;5.00;1.57;;;21.30;63.30;;;;;;6222560;23;20442;-87
2022/08/26 17:18:22;;;;;;;4.87;1.77;;;21.20;63.20;;;;;;6232576;23;20434;-87
2022/08/26 17:20:58;;;;;;;7.70;1.40;;;21.30;63.00;;;;;;6233455;23;20426;-87
2022/08/26 17:23:26;;;;;;;5.87;1.40;;;21.20;63.30;;;;;;6232271;23;20821;-87
2022/08/26 17:25:55;;;;;;;4.80;1.70;;;21.10;62.90;;;;;;6231677;23;20500;-87
2022/08/26 17:28:21;;;;;;;8.30;1.87;;;21.10;62.90;;;;;;6232464;23;20445;-87
2022/08/26 17:30:49;;;;;;;6.93;1.70;;;21.30;63.90;;;;;;6194471;23;20938;-87
2022/08/26 17:33:20;;;;;;;6.93;1.47;;;21.20;64.00;;;;;;6222772;23;20422;-87
2022/08/26 17:35:55;;;;;;;5.60;1.80;;;21.10;63.70;;;;;;6231036;23;20494;-87
2022/08/26 17:38:28;;;;;;;7.37;2.30;;;21.20;64.10;;;;;;6222180;23;20404;-87
2022/08/26 17:41:01;;;;;;;8.83;1.50;;;21.20;64.40;;;;;;6230917;23;20390;-87
2022/08/26 17:43:33;;;;;;;10.60;2.07;;;21.10;64.60;;;;;;6232593;23;20431;-87
2022/08/26 17:46:13;;;;;;;5.97;1.53;;;21.00;64.50;;;;;;6232860;23;20471;-87
2022/08/26 17:48:42;;;;;;;8.60;1.67;;;21.00;64.50;;;;;;6232543;23;20917;-87
2022/08/26 17:51:11;;;;;;;6.97;1.47;;;21.10;64.30;;;;;;6232726;23;20779;-87
2022/08/26 17:53:40;;;;;;;4.57;2.00;;;21.00;64.30;;;;;;6221758;23;20499;-87
2022/08/26 17:56:13;;;;;;;5.30;1.37;;;21.00;64.20;;;;;;6232815;23;20491;-87
2022/08/26 17:58:47;;;;;;;9.03;1.53;;;21.00;63.30;;;;;;6221931;23;20432;-86
2022/08/26 18:01:14;;;;;;;5.70;1.50;;;20.90;63.30;;;;;;6223427;23;20400;-87
2022/08/26 18:03:41;;;;;;;7.63;1.70;;;20.90;62.90;;;;;;6232302;23;20440;-86
2022/08/26 18:06:10;;;;;;;14.67;2.00;;;20.90;63.20;;;;;;6221924;23;20416;-87
2022/08/26 18:08:37;;;;;;;10.60;2.13;;;20.90;62.90;;;;;;6232759;23;20956;-87
2022/08/26 18:11:09;;;;;;;8.80;1.67;;;20.80;63.50;;;;;;6219900;23;21027;-87
2022/08/26 18:13:36;;;;;;;6.20;1.70;;;20.80;63.70;;;;;;6222737;23;20388;-87
2022/08/26 18:16:05;;;;;;;5.93;2.03;;;20.80;62.70;;;;;;6231014;23;20479;-86
2022/08/26 18:18:32;;;;;;;11.10;2.20;;;20.70;62.50;;;;;;6221512;23;20453;-88
2022/08/26 18:21:05;;;;;;;5.50;2.07;;;20.80;62.60;;;;;;6233389;23;20448;-86
2022/08/26 18:23:45;;;;;;;5.30;1.83;;;20.80;63.30;;;;;;6231304;23;20520;-87
2022/08/26 18:26:47;;;;;;;6.17;1.80;;;20.70;64.20;;;;;;6233387;23;20446;-87
2022/08/26 18:29:17;;;;;;;5.03;1.80;;;20.70;65.30;;;;;;6231100;23;20448;-86
2022/08/26 18:32:00;;;;;;;4.77;1.90;;;20.60;66.50;;;;;;6232821;23;20419;-87
2022/08/26 18:34:27;;;;;;;5.50;1.80;;;20.40;68.50;;;;;;6232608;23;20421;-87
2022/08/26 18:37:14;;;;;;;11.53;2.43;;;20.30;70.40;;;;;;6223331;23;20409;-87
2022/08/26 18:39:43;;;;;;;5.20;2.03;;;20.10;72.60;;;;;;6232833;23;20510;-87
2022/08/26 18:42:11;;;;;;;5.30;3.67;;;19.90;76.20;;;;;;6231615;23;20765;-86
2022/08/26 18:44:40;;;;;;;12.23;11.00;;;19.70;81.90;;;;;;6222912;23;20428;-86
2022/08/26 18:47:07;;;;;;;13.20;11.87;;;19.70;85.80;;;;;;6232211;23;20878;-86
2022/08/26 18:49:35;;;;;;;19.50;18.20;;;19.60;85.80;;;;;;6232217;23;20448;-86
2022/08/26 18:52:03;;;;;;;26.67;25.40;;;19.50;88.20;;;;;;6235333;23;20470;-86
2022/08/26 18:54:37;;;;;;;27.40;25.97;;;19.50;89.30;;;;;;6233283;23;20895;-87
2022/08/26 18:57:05;;;;;;;20.77;19.50;;;19.40;87.40;;;;;;6235572;23;20428;-87
2022/08/26 18:59:33;;;;;;;23.83;22.53;;;19.40;88.00;;;;;;6233455;23;20810;-86
2022/08/26 19:02:00;;;;;;;9.13;8.43;;;19.50;87.30;;;;;;6223932;23;20443;-87